KLHM/LHM METAR and TAF weather

Enter ICAO airport designator
Station Type Date Time Source
KLHM METAR 2020/07/08 22:55 UTC NOAA

KLHM 082255Z AUTO 25006KT 10SM CLR 35/05 A2978 RMK AO1


Station Type Date Time Source
KLHM Decoded METAR 2020/07/08 22:55 UTC NOAA

Station name not available
Jul 08, 2020 - 06:55 PM EDT / 2020.07.08 2255 UTC
Wind: from the WSW (250 degrees) at 7 MPH (6 KT):0
Visibility: 10 mile(s):0
Sky conditions: clear
Temperature: 95 F (35 C)
Dew Point: 41 F (5 C)
Relative Humidity: 15%
Pressure (altimeter): 29.78 in. Hg (1008 hPa)
ob: KLHM 082255Z AUTO 25006KT 10SM CLR 35/05 A2978 RMK AO1
cycle: 23

Station Type Date Time Source
KLHM TAF UTC NOAA

Error!

Example: see airport list